Time;durP1;ratioP1;P1;durP2;ratioP2;P2;SDS_P1;SDS_P2;PMS_P1;PMS_P2;Temp;Humidity;BMP_temperature;BMP_pressure;BME280_temperature;BME280_humidity;BME280_pressure;Samples;Min_cycle;Max_cycle;Signal;HPM_P1;HPM_P2
2021/04/27 00:01:43;;;;;;;1.80;1.13;;;;;;;-143.37;100.00;65745.06;5108376;28;20699;-73
2021/04/27 00:04:10;;;;;;;2.13;1.50;;;;;;;-143.37;100.00;65745.06;5091193;28;20200;-73
2021/04/27 00:06:36;;;;;;;1.87;1.10;;;;;;;-143.37;100.00;65745.06;5073267;28;20253;-73
2021/04/27 00:09:05;;;;;;;2.10;1.20;;;;;;;-143.37;100.00;65745.06;5091381;28;20647;-73
2021/04/27 00:11:31;;;;;;;1.53;1.30;;;;;;;-143.37;100.00;65745.06;5091016;28;20677;-73
2021/04/27 00:13:58;;;;;;;1.87;0.90;;;;;;;-143.37;100.00;65745.06;5090358;28;20227;-73
2021/04/27 00:16:24;;;;;;;1.13;0.87;;;;;;;-143.37;100.00;65745.06;5091069;28;20780;-72
2021/04/27 00:18:50;;;;;;;0.70;0.70;;;;;;;-143.37;100.00;65745.06;5090492;28;20676;-73
2021/04/27 00:21:17;;;;;;;1.37;1.20;;;;;;;-143.37;100.00;65745.06;5091918;28;20228;-73
2021/04/27 00:23:43;;;;;;;1.07;0.97;;;;;;;-143.37;100.00;65745.06;5091502;28;20802;-72
2021/04/27 00:26:09;;;;;;;2.30;1.10;;;;;;;-143.37;100.00;65745.06;5089813;28;20260;-73
2021/04/27 00:28:35;;;;;;;0.83;0.50;;;;;;;-143.37;100.00;65745.06;5073365;28;20200;-72
2021/04/27 00:31:01;;;;;;;1.60;0.80;;;;;;;-143.37;100.00;65745.06;5090300;28;20262;-73
2021/04/27 00:33:27;;;;;;;0.47;0.47;;;;;;;-143.37;100.00;65745.06;5090878;28;20303;-74
2021/04/27 00:35:53;;;;;;;3.80;1.17;;;;;;;-143.37;100.00;65745.06;5072940;28;20278;-71
2021/04/27 00:38:19;;;;;;;1.00;0.80;;;;;;;-143.37;100.00;65745.06;5091195;28;20232;-72
2021/04/27 00:40:45;;;;;;;0.77;0.73;;;;;;;-143.37;100.00;65745.06;5091047;28;20243;-73
2021/04/27 00:43:11;;;;;;;1.23;1.00;;;;;;;-143.37;100.00;65745.06;5089421;28;20197;-72
2021/04/27 00:45:38;;;;;;;0.70;0.70;;;;;;;-143.37;100.00;65745.06;5090388;28;20232;-71
2021/04/27 00:48:04;;;;;;;1.00;0.90;;;;;;;-143.37;100.00;65745.06;5090537;28;20675;-71
2021/04/27 00:50:34;;;;;;;2.93;1.57;;;;;;;-143.37;100.00;65745.06;5106824;28;20234;-71
2021/04/27 00:53:01;;;;;;;2.07;0.93;;;;;;;-143.37;100.00;65745.06;5111180;28;20229;-72
2021/04/27 00:55:28;;;;;;;1.13;0.87;;;;;;;-143.37;100.00;65745.06;5110736;28;20314;-72
2021/04/27 00:57:55;;;;;;;2.67;0.67;;;;;;;-143.37;100.00;65745.06;5111117;28;20238;-72
2021/04/27 01:33:53;;;;;;;2.13;1.03;;;;;;;8.56;87.68;97302.22;5107656;27;20492;-72
2021/04/27 01:36:20;;;;;;;0.77;0.73;;;;;;;8.28;86.29;97302.13;5089379;28;20771;-72
2021/04/27 01:38:47;;;;;;;1.07;0.77;;;;;;;8.39;90.14;97307.94;5107937;28;20227;-72
2021/04/27 01:41:14;;;;;;;0.80;0.70;;;;;;;8.34;88.16;97305.44;5107756;28;20207;-70
2021/04/27 01:43:40;;;;;;;0.77;0.73;;;;;;;8.44;89.42;97292.03;5107780;28;20222;-72
2021/04/27 01:46:07;;;;;;;3.40;0.90;;;;;;;8.49;89.19;97302.78;5107155;28;20247;-70
2021/04/27 01:48:35;;;;;;;1.00;0.90;;;;;;;-143.37;100.00;65745.06;5107987;28;20241;-72
2021/04/27 01:51:04;;;;;;;0.70;0.67;;;;;;;-143.37;90.26;97298.31;5127672;27;20294;-70
2021/04/27 01:53:31;;;;;;;1.10;0.93;;;;;;;-143.37;100.00;65745.06;5127976;27;20222;-72
2021/04/27 01:55:57;;;;;;;0.83;0.70;;;;;;;-143.37;100.00;65745.06;5126223;28;20318;-72
2021/04/27 01:58:23;;;;;;;0.73;0.73;;;;;;;-143.37;100.00;65745.06;5127900;27;20260;-72
2021/04/27 02:00:49;;;;;;;0.40;0.40;;;;;;;-143.37;100.00;65745.06;5127856;27;20234;-72
2021/04/27 02:03:15;;;;;;;0.90;0.90;;;;;;;-143.37;100.00;65745.06;5112415;27;20299;-72
2021/04/27 02:05:41;;;;;;;0.73;0.70;;;;;;;-143.37;100.00;65745.06;5106789;28;20654;-72
2021/04/27 02:08:07;;;;;;;0.57;0.57;;;;;;;-143.37;100.00;65745.06;5088851;28;20668;-72
2021/04/27 02:10:34;;;;;;;1.97;1.00;;;;;;;-143.37;100.00;65745.06;5106993;28;20355;-72
2021/04/27 02:13:12;;;;;;;1.10;0.93;;;;;;;-143.37;100.00;65745.06;5106838;28;20635;-72
2021/04/27 02:15:39;;;;;;;1.00;0.90;;;;;;;-143.37;100.00;65745.06;5105382;28;20670;-72
2021/04/27 02:18:24;;;;;;;1.57;1.00;;;;;;;-143.37;100.00;65745.06;5106987;28;20203;-72
2021/04/27 02:20:53;;;;;;;1.20;1.10;;;;;;;-143.37;100.00;65745.06;5105815;28;20602;-72
2021/04/27 02:23:20;;;;;;;1.10;0.60;;;;;;;-143.37;100.00;65745.06;5106691;28;20211;-72
2021/04/27 02:25:48;;;;;;;1.47;0.80;;;;;;;-143.37;100.00;65745.06;5105562;28;20312;-72
2021/04/27 02:28:14;;;;;;;0.70;0.70;;;;;;;-143.37;100.00;65745.06;5106986;28;20211;-72
2021/04/27 02:30:41;;;;;;;1.03;0.90;;;;;;;-143.37;100.00;65745.06;5106898;28;20283;-73
2021/04/27 02:33:08;;;;;;;0.47;0.43;;;;;;;-143.37;100.00;65745.06;5105474;28;20779;-73
2021/04/27 02:35:35;;;;;;;0.43;0.43;;;;;;;-143.37;100.00;65745.06;5105222;28;20909;-72
2021/04/27 02:38:01;;;;;;;1.37;1.10;;;;;;;-143.37;100.00;65745.06;5105724;28;20669;-72
2021/04/27 02:40:28;;;;;;;0.90;0.70;;;;;;;-143.37;100.00;65745.06;5106491;28;20224;-72
2021/04/27 02:42:58;;;;;;;0.73;0.70;;;;;;;-143.37;100.00;65745.06;5106690;28;20401;-73
2021/04/27 02:45:31;;;;;;;1.27;0.87;;;;;;;-143.37;100.00;65745.06;5090994;28;20228;-72
2021/04/27 02:48:07;;;;;;;1.17;0.90;;;;;;;-143.37;100.00;65745.06;5093113;28;20296;-72
2021/04/27 02:50:33;;;;;;;2.93;0.83;;;;;;;-143.37;100.00;65745.06;5109094;28;20234;-73
2021/04/27 02:53:01;;;;;;;0.80;0.80;;;;;;;-143.37;100.00;65745.06;5112997;27;20223;-73
2021/04/27 02:55:27;;;;;;;0.60;0.60;;;;;;;-143.37;100.00;65745.06;5113145;28;20223;-73
2021/04/27 02:57:53;;;;;;;1.07;0.97;;;;;;;-143.37;100.00;65745.06;5113377;28;20660;-73
2021/04/27 03:00:20;;;;;;;2.00;1.03;;;;;;;-143.37;100.00;65745.06;5099596;28;20254;-73
2021/04/27 03:02:46;;;;;;;1.97;1.20;;;;;;;-143.37;100.00;65745.06;5091417;28;20208;-72
2021/04/27 03:05:13;;;;;;;2.00;1.00;;;;;;;-143.37;100.00;65745.06;5092152;28;20220;-72
2021/04/27 03:07:39;;;;;;;0.33;0.33;;;;;;;-143.37;100.00;65745.06;5092332;28;20246;-72
2021/04/27 03:10:06;;;;;;;0.87;0.47;;;;;;;-143.37;100.00;65745.06;5092697;28;20295;-72
2021/04/27 03:12:32;;;;;;;0.57;0.57;;;;;;;-143.37;100.00;65745.06;5091259;28;20252;-72
2021/04/27 03:14:58;;;;;;;1.00;0.57;;;;;;;-143.37;100.00;65745.06;5090781;28;20311;-72
2021/04/27 03:17:24;;;;;;;1.17;1.07;;;;;;;-143.37;100.00;65745.06;5092216;28;20218;-72
2021/04/27 03:19:50;;;;;;;1.03;0.70;;;;;;;-143.37;100.00;65745.06;5090953;28;20204;-72
2021/04/27 03:22:16;;;;;;;1.10;1.00;;;;;;;-143.37;100.00;65745.06;5090689;28;20209;-72
2021/04/27 03:24:42;;;;;;;1.93;1.57;;;;;;;-143.37;100.00;65745.06;5092153;28;20216;-72
2021/04/27 03:27:08;;;;;;;0.93;0.70;;;;;;;-143.37;100.00;65745.06;5092125;28;20208;-73
2021/04/27 03:29:34;;;;;;;2.33;1.30;;;;;;;-143.37;100.00;65745.06;5092228;28;20208;-72
2021/04/27 03:32:00;;;;;;;1.93;0.97;;;;;;;-143.37;100.00;65745.06;5090797;28;20220;-72
2021/04/27 03:34:26;;;;;;;0.60;0.60;;;;;;;-143.37;100.00;65745.06;5090833;28;20205;-73
2021/04/27 03:36:53;;;;;;;5.73;0.97;;;;;;;-143.37;100.00;65745.06;5091648;28;20315;-73
2021/04/27 03:39:19;;;;;;;1.20;0.67;;;;;;;-143.37;100.00;65745.06;5092322;28;20210;-73
2021/04/27 03:41:45;;;;;;;1.40;0.97;;;;;;;-143.37;100.00;65745.06;5073933;28;20313;-72
2021/04/27 03:44:11;;;;;;;24.87;1.80;;;;;;;-143.37;100.00;65745.06;5071603;28;20307;-72
2021/04/27 03:46:37;;;;;;;1.43;1.13;;;;;;;-143.37;100.00;65745.06;5071143;28;20823;-72
2021/04/27 03:49:03;;;;;;;0.60;0.60;;;;;;;-143.37;100.00;65745.06;5079838;28;20610;-73
2021/04/27 03:51:30;;;;;;;0.73;0.70;;;;;;;-143.37;100.00;65745.06;5111765;28;20260;-73
2021/04/27 03:53:56;;;;;;;2.30;1.13;;;;;;;-143.37;100.00;65745.06;5112224;28;20312;-73
2021/04/27 03:56:22;;;;;;;1.37;0.80;;;;;;;-143.37;100.00;65745.06;5110646;28;20224;-71
2021/04/27 03:58:49;;;;;;;1.87;1.27;;;;;;;-143.37;100.00;65745.06;5110937;28;20208;-73
2021/04/27 04:01:16;;;;;;;1.23;0.90;;;;;;;-143.37;100.00;65745.06;5110593;28;20289;-72
2021/04/27 04:03:42;;;;;;;0.60;0.60;;;;;;;-143.37;100.00;65745.06;5092873;28;20291;-71
2021/04/27 04:06:08;;;;;;;1.07;0.60;;;;;;;-143.37;100.00;65745.06;5090900;28;20289;-71
2021/04/27 04:08:35;;;;;;;4.33;1.77;;;;;;;-143.37;100.00;65745.06;5091303;28;20359;-71
2021/04/27 04:11:02;;;;;;;2.23;0.90;;;;;;;-143.37;100.00;65745.06;5073034;28;20293;-71
2021/04/27 04:13:28;;;;;;;1.00;0.80;;;;;;;-143.37;100.00;65745.06;5091142;28;20216;-71
2021/04/27 04:15:54;;;;;;;0.93;0.80;;;;;;;-143.37;100.00;65745.06;5090703;28;20323;-71
2021/04/27 04:18:21;;;;;;;2.00;0.93;;;;;;;-143.37;100.00;65745.06;5091036;28;20295;-71
2021/04/27 04:20:49;;;;;;;0.80;0.60;;;;;;;-143.37;100.00;65745.06;5073193;28;20307;-71
2021/04/27 04:23:15;;;;;;;1.60;1.00;;;;;;;-143.37;100.00;65745.06;5091199;28;20204;-71
2021/04/27 04:25:42;;;;;;;0.70;0.70;;;;;;;-143.37;100.00;65745.06;5072780;28;20315;-71
2021/04/27 04:28:10;;;;;;;1.10;1.00;;;;;;;-143.37;100.00;65745.06;5089765;28;20236;-71
2021/04/27 04:30:36;;;;;;;2.63;1.13;;;;;;;-143.37;100.00;65745.06;5090860;28;20743;-72
2021/04/27 04:33:03;;;;;;;1.83;1.43;;;;;;;-143.37;100.00;65745.06;5090704;28;20228;-71
2021/04/27 04:35:31;;;;;;;1.20;1.00;;;;;;;-143.37;100.00;65745.06;5090346;28;20232;-71
2021/04/27 04:38:01;;;;;;;3.57;1.30;;;;;;;-143.37;100.00;65745.06;5089706;28;20204;-71
2021/04/27 04:40:28;;;;;;;0.47;0.47;;;;;;;-143.37;100.00;65745.06;5090843;28;20204;-71
2021/04/27 04:42:54;;;;;;;0.70;0.50;;;;;;;-143.37;100.00;65745.06;5090698;28;20258;-72
2021/04/27 04:45:20;;;;;;;1.83;0.83;;;;;;;-143.37;100.00;65745.06;5089096;28;20267;-72
2021/04/27 04:47:46;;;;;;;1.03;0.93;;;;;;;-143.37;100.00;65745.06;5090231;28;20272;-72
2021/04/27 04:50:14;;;;;;;0.93;0.67;;;;;;;-143.37;100.00;65745.06;5104941;28;20297;-72
2021/04/27 04:52:41;;;;;;;1.73;0.67;;;;;;;-143.37;100.00;65745.06;5092346;28;20635;-72
2021/04/27 04:55:09;;;;;;;1.47;1.07;;;;;;;-143.37;100.00;65745.06;5108898;28;20235;-72
2021/04/27 04:57:36;;;;;;;2.13;1.00;;;;;;;-143.37;100.00;65745.06;5109513;28;20278;-72
2021/04/27 05:00:08;;;;;;;3.30;1.70;;;;;;;-143.37;100.00;65745.06;5110689;28;20283;-72
2021/04/27 05:02:34;;;;;;;2.40;1.43;;;;;;;-143.37;100.00;65745.06;5100220;28;20279;-72
2021/04/27 05:05:01;;;;;;;1.77;1.13;;;;;;;-143.37;100.00;65745.06;5089943;28;20949;-71
2021/04/27 05:07:28;;;;;;;0.83;0.80;;;;;;;-143.37;100.00;65745.06;5089805;28;20665;-71
2021/04/27 05:09:54;;;;;;;1.80;0.97;;;;;;;10.83;86.19;74869.31;5088935;28;20208;-71
2021/04/27 05:12:20;;;;;;;1.33;0.83;;;;;;;-143.37;100.00;65745.06;5080730;28;20718;-72
2021/04/27 05:14:46;;;;;;;0.90;0.60;;;;;;;11.63;79.44;97215.94;5087915;28;20196;-71
2021/04/27 05:17:15;;;;;;;0.90;0.80;;;;;;;11.29;80.70;97222.41;5072103;28;20269;-73
2021/04/27 05:19:42;;;;;;;2.83;1.30;;;;;;;-143.37;100.00;65745.06;5089232;28;20212;-72
2021/04/27 05:22:09;;;;;;;1.20;0.70;;;;;;;11.24;80.11;97215.19;5067757;28;20922;-72
2021/04/27 05:24:37;;;;;;;2.10;0.90;;;;;;;11.67;74.89;97214.09;5069347;28;20266;-72
2021/04/27 05:27:05;;;;;;;1.60;0.83;;;;;;;12.13;72.83;97212.13;5068253;28;20200;-72
2021/04/27 05:29:31;;;;;;;1.60;1.20;;;;;;;12.08;72.30;97206.88;5077472;28;20228;-72
2021/04/27 05:31:58;;;;;;;2.30;1.10;;;;;;;12.16;71.88;97214.94;5088404;28;20212;-72
2021/04/27 05:34:24;;;;;;;1.00;0.80;;;;;;;12.66;69.54;97204.66;5086266;28;20231;-72
2021/04/27 05:36:51;;;;;;;1.23;0.90;;;;;;;12.05;68.96;97207.63;5071526;28;20243;-72
2021/04/27 05:39:18;;;;;;;1.13;0.83;;;;;;;12.57;70.99;97213.22;5089608;28;20243;-71
2021/04/27 05:41:44;;;;;;;3.30;1.57;;;;;;;13.54;68.26;97212.16;5088381;28;20240;-71
2021/04/27 05:44:10;;;;;;;1.27;1.10;;;;;;;16.08;57.71;97198.72;5089687;28;20228;-71
2021/04/27 05:46:36;;;;;;;1.40;1.20;;;;;;;16.98;53.63;97195.50;5088151;28;20602;-71
2021/04/27 05:49:03;;;;;;;1.70;1.20;;;;;;;14.99;56.42;97197.53;5092980;28;20260;-72
2021/04/27 05:51:29;;;;;;;1.60;0.97;;;;;;;14.81;58.13;97202.19;5110146;28;20206;-72
2021/04/27 05:53:55;;;;;;;1.23;1.00;;;;;;;17.26;51.39;97198.22;5094371;28;20224;-72
2021/04/27 05:56:21;;;;;;;7.27;1.73;;;;;;;18.20;48.50;97194.13;5071151;28;20277;-72
2021/04/27 05:58:48;;;;;;;1.40;1.10;;;;;;;19.08;45.73;97192.56;5072018;28;20265;-72
2021/04/27 06:01:14;;;;;;;2.60;1.40;;;;;;;20.22;42.66;97193.50;5090009;28;20208;-72
2021/04/27 06:03:40;;;;;;;1.57;1.17;;;;;;;21.40;40.19;97188.25;5088404;28;20291;-72
2021/04/27 06:06:07;;;;;;;1.67;1.13;;;;;;;21.73;38.63;97187.91;5087608;28;20216;-72
2021/04/27 06:08:36;;;;;;;2.08;1.48;;;;;;;22.41;37.34;97181.59;5088548;28;20236;-72
2021/04/27 06:11:06;;;;;;;3.10;1.55;;;;;;;22.69;35.90;97180.91;5088212;28;20230;-72
2021/04/27 06:13:33;;;;;;;1.77;1.15;;;;;;;21.99;36.23;97181.34;5088265;28;20282;-73
2021/04/27 06:16:00;;;;;;;3.60;1.60;;;;;;;21.39;36.96;97181.81;5089398;28;20256;-72
2021/04/27 06:18:26;;;;;;;6.25;1.65;;;;;;;20.39;38.06;97180.41;5089650;28;20291;-72
2021/04/27 06:20:52;;;;;;;3.60;2.00;;;;;;;19.96;37.94;97181.03;5093463;28;20549;-73
2021/04/27 06:23:18;;;;;;;3.17;1.88;;;;;;;20.56;38.16;97179.34;5092843;28;20598;-72
2021/04/27 06:25:44;;;;;;;7.25;2.40;;;;;;;21.86;36.96;97172.00;5092938;28;20228;-72
2021/04/27 06:28:13;;;;;;;2.22;1.42;;;;;;;21.29;37.42;97176.44;5093426;28;20232;-73
2021/04/27 06:30:40;;;;;;;2.42;1.83;;;;;;;20.27;38.33;97178.22;5093971;28;20724;-72
2021/04/27 06:33:06;;;;;;;4.07;1.48;;;;;;;20.39;38.68;97170.00;5093968;28;20247;-72
2021/04/27 06:35:32;;;;;;;3.10;1.70;;;;;;;21.54;37.26;97177.50;5075330;28;20228;-72
2021/04/27 06:37:58;;;;;;;2.08;1.50;;;;;;;22.87;35.85;97167.97;5081629;28;20209;-72
2021/04/27 06:40:26;;;;;;;1.58;1.20;;;;;;;23.26;35.24;97166.94;5057903;28;20205;-72
2021/04/27 06:42:52;;;;;;;2.38;1.75;;;;;;;22.97;34.58;97166.88;5081165;28;20224;-72
2021/04/27 06:45:18;;;;;;;2.28;1.38;;;;;;;22.70;35.83;97169.22;5088990;28;20293;-71
2021/04/27 06:47:46;;;;;;;3.92;1.70;;;;;;;22.68;35.89;97166.06;5074304;28;20204;-71
2021/04/27 06:50:16;;;;;;;2.00;1.38;;;;;;;21.63;36.61;97168.50;5107360;28;20200;-70
2021/04/27 06:52:44;;;;;;;2.22;1.52;;;;;;;21.27;37.42;97170.44;5112753;28;20195;-70
2021/04/27 06:55:11;;;;;;;2.58;1.70;;;;;;;21.36;36.98;97163.03;5106797;28;20273;-70
2021/04/27 06:57:37;;;;;;;2.35;1.25;;;;;;;22.31;36.84;97166.56;5091400;28;20204;-70
2021/04/27 07:00:06;;;;;;;1.40;1.15;;;;;;;21.65;37.29;97166.03;5092340;28;20209;-70
2021/04/27 07:02:32;;;;;;;1.65;1.20;;;;;;;21.67;36.87;97158.78;5092224;28;20282;-70
2021/04/27 07:04:59;;;;;;;2.30;1.83;;;;;;;21.21;37.75;97153.31;5092221;28;20228;-70
2021/04/27 07:07:25;;;;;;;4.15;2.00;;;;;;;21.50;36.22;97151.50;5092230;28;20212;-70
2021/04/27 07:09:51;;;;;;;1.95;1.67;;;;;;;21.97;36.25;97155.72;5091450;28;20225;-71
2021/04/27 07:12:17;;;;;;;1.58;1.42;;;;;;;22.25;37.45;97145.03;5091371;28;20205;-72
2021/04/27 07:14:43;;;;;;;2.08;1.40;;;;;;;22.25;35.87;97147.84;5090827;28;21082;-70
2021/04/27 07:17:11;;;;;;;2.88;1.77;;;;;;;21.83;37.44;97149.63;5092344;28;20311;-71
2021/04/27 07:19:37;;;;;;;2.75;1.75;;;;;;;21.28;37.49;97158.78;5092222;28;20247;-71
2021/04/27 07:22:03;;;;;;;2.72;1.42;;;;;;;22.01;37.18;97150.81;5091005;28;20212;-71
2021/04/27 07:24:31;;;;;;;2.55;1.77;;;;;;;22.08;37.35;97139.38;5091995;28;20296;-72
2021/04/27 07:26:58;;;;;;;2.38;1.50;;;;;;;22.44;37.02;97142.16;5092019;28;20637;-70
2021/04/27 07:29:24;;;;;;;2.05;1.63;;;;;;;23.00;37.21;97148.34;5090681;28;20204;-70
2021/04/27 07:31:51;;;;;;;3.17;1.80;;;;;;;22.76;36.31;97133.69;5091901;28;20209;-70
2021/04/27 07:34:17;;;;;;;2.72;1.70;;;;;;;23.29;35.06;97139.88;5091837;28;20205;-73
2021/04/27 07:36:44;;;;;;;5.60;1.42;;;;;;;23.52;35.96;97134.81;5092084;28;20229;-70
2021/04/27 07:39:11;;;;;;;3.63;1.40;;;;;;;23.84;36.51;97142.31;5090698;28;20205;-70
2021/04/27 07:41:38;;;;;;;3.53;1.67;;;;;;;24.37;35.24;97133.00;5091672;28;20261;-70
2021/04/27 07:44:05;;;;;;;4.07;2.20;;;;;;;24.30;35.51;97135.25;5090442;28;20228;-71
2021/04/27 07:46:32;;;;;;;4.03;1.83;;;;;;;23.82;34.55;97141.97;5091465;28;20252;-71
2021/04/27 07:48:59;;;;;;;2.63;1.63;;;;;;;23.02;35.77;97138.22;5094213;28;20199;-71
2021/04/27 07:51:26;;;;;;;1.90;1.52;;;;;;;23.12;36.60;97130.69;5111981;28;20208;-71
2021/04/27 07:53:52;;;;;;;1.60;1.10;;;;;;;23.62;35.41;97138.53;5111881;28;20678;-71
2021/04/27 07:56:20;;;;;;;2.10;1.58;;;;;;;23.35;35.80;97138.94;5111754;28;20255;-71
2021/04/27 07:58:46;;;;;;;4.15;1.65;;;;;;;23.86;33.21;97135.00;5110544;28;20199;-71
2021/04/27 08:01:12;;;;;;;1.27;1.15;;;;;;;24.26;33.91;97137.38;5110306;28;20210;-71
2021/04/27 08:03:38;;;;;;;2.80;1.85;;;;;;;24.23;35.43;97130.63;5093176;28;20708;-71
2021/04/27 08:06:05;;;;;;;2.88;1.83;;;;;;;24.35;33.69;97124.19;5090936;28;20236;-71
2021/04/27 08:08:32;;;;;;;2.97;1.15;;;;;;;24.18;34.39;97128.38;5091293;28;20295;-72
2021/04/27 08:10:59;;;;;;;3.03;1.67;;;;;;;24.38;34.12;97134.56;5089926;28;20281;-72
2021/04/27 08:13:25;;;;;;;2.08;1.52;;;;;;;24.06;34.40;97129.16;5090905;28;20639;-72
2021/04/27 08:15:51;;;;;;;3.88;1.45;;;;;;;24.18;34.53;97136.06;5090682;28;20278;-71
2021/04/27 08:18:17;;;;;;;1.75;1.45;;;;;;;24.47;33.41;97136.72;5091217;28;20301;-71
2021/04/27 08:20:44;;;;;;;1.95;1.40;;;;;;;24.79;33.57;97128.75;5073166;28;20208;-71
2021/04/27 08:23:11;;;;;;;2.33;1.65;;;;;;;25.31;33.61;97130.16;5090843;28;20220;-71
2021/04/27 08:25:56;;;;;;;2.13;1.50;;;;;;;24.57;33.39;97127.88;5089619;28;20231;-71
2021/04/27 08:28:22;;;;;;;2.13;1.35;;;;;;;25.40;34.01;97128.19;5090675;28;20204;-71
2021/04/27 08:30:49;;;;;;;1.88;1.42;;;;;;;25.44;33.89;97120.38;5089245;28;20271;-71
2021/04/27 08:33:15;;;;;;;2.85;1.52;;;;;;;24.86;33.22;97119.25;5090597;28;20860;-71
2021/04/27 08:35:41;;;;;;;2.75;1.50;;;;;;;25.17;32.93;97125.81;5090382;28;20256;-71
2021/04/27 08:38:07;;;;;;;1.13;1.02;;;;;;;24.81;33.95;97128.31;5090419;28;20628;-71
2021/04/27 08:40:33;;;;;;;2.92;1.60;;;;;;;25.39;35.19;97126.63;5090388;28;20204;-71
2021/04/27 08:43:01;;;;;;;1.75;1.58;;;;;;;25.13;33.43;97127.97;5089705;28;20232;-71
2021/04/27 08:45:27;;;;;;;1.98;1.40;;;;;;;25.07;32.83;97129.81;5089090;28;20224;-71
2021/04/27 08:47:54;;;;;;;2.78;1.73;;;;;;;24.02;32.75;97120.03;5090186;28;20210;-71
2021/04/27 08:50:20;;;;;;;1.92;1.60;;;;;;;25.21;33.47;97120.81;5087880;28;20902;-71
2021/04/27 08:52:47;;;;;;;3.33;1.83;;;;;;;24.35;30.54;97114.94;5110809;28;20866;-72
2021/04/27 08:55:14;;;;;;;1.38;1.27;;;;;;;24.72;33.32;97117.72;5110544;28;20250;-72
2021/04/27 08:57:41;;;;;;;1.50;1.40;;;;;;;22.88;33.44;97118.13;5101586;28;20201;-71
2021/04/27 09:00:15;;;;;;;3.30;1.98;;;;;;;21.13;34.51;97124.59;5090261;28;20215;-73
2021/04/27 09:02:44;;;;;;;2.38;1.85;;;;;;;22.53;33.96;97114.19;5088731;28;20797;-71
2021/04/27 09:05:22;;;;;;;1.40;1.27;;;;;;;20.98;33.99;97111.25;5088679;28;20255;-71
2021/04/27 09:07:52;;;;;;;1.75;1.40;;;;;;;22.66;35.64;97109.44;5089867;28;20231;-71
2021/04/27 09:10:25;;;;;;;3.00;1.70;;;;;;;21.80;34.05;97116.78;5088765;28;20208;-72
2021/04/27 09:12:57;;;;;;;2.67;1.83;;;;;;;22.97;34.45;97098.56;5072651;28;20193;-72
2021/04/27 09:15:36;;;;;;;1.95;1.52;;;;;;;23.83;32.88;97106.94;5088562;28;20256;-71
2021/04/27 09:18:28;;;;;;;3.00;1.50;;;;;;;24.34;32.95;97094.41;5089990;28;20234;-71
2021/04/27 09:21:04;;;;;;;2.97;1.80;;;;;;;24.27;33.86;97089.00;5089885;28;20200;-71
2021/04/27 09:23:32;;;;;;;1.38;1.20;;;;;;;23.59;34.89;97091.56;5085348;28;20223;-70
2021/04/27 09:26:08;;;;;;;2.53;1.60;;;;;;;24.35;34.54;97089.53;5088163;28;20216;-73
2021/04/27 09:28:35;;;;;;;1.70;1.40;;;;;;;23.65;35.38;97092.59;5081132;28;20286;-73
2021/04/27 09:31:19;;;;;;;2.22;1.75;;;;;;;22.57;33.63;97091.63;5075950;28;20701;-73
2021/04/27 09:33:45;;;;;;;4.88;1.98;;;;;;;24.55;33.26;97081.59;5084095;28;20228;-73
2021/04/27 09:36:21;;;;;;;1.92;1.67;;;;;;;24.58;33.98;97075.06;5071076;28;20277;-73
2021/04/27 09:38:47;;;;;;;2.25;1.77;;;;;;;23.92;32.14;97085.25;5084454;28;20209;-73
2021/04/27 09:41:13;;;;;;;2.08;1.70;;;;;;;20.81;34.77;97095.56;5073686;28;20295;-73
2021/04/27 09:43:42;;;;;;;1.90;1.67;;;;;;;21.19;37.38;97091.22;5084468;28;20269;-73
2021/04/27 09:46:11;;;;;;;5.20;2.05;;;;;;;21.50;34.99;97091.75;5079729;28;20274;-74
2021/04/27 09:48:50;;;;;;;7.10;2.03;;;;;;;21.24;37.16;97079.47;5079698;28;20260;-73
2021/04/27 09:51:36;;;;;;;2.25;1.98;;;;;;;20.61;36.06;97097.53;5065892;28;20704;-73
2021/04/27 09:54:07;;;;;;;4.20;2.00;;;;;;;20.54;38.03;97080.84;5080782;28;20212;-74
2021/04/27 09:56:41;;;;;;;2.38;1.70;;;;;;;20.73;37.81;97082.91;5082819;28;20247;-73
2021/04/27 09:59:22;;;;;;;2.38;1.38;;;;;;;22.45;36.27;97064.19;5082624;28;20221;-74
2021/04/27 10:01:50;;;;;;;2.50;1.88;;;;;;;20.71;35.72;97074.13;5082160;28;20787;-73
2021/04/27 10:04:40;;;;;;;2.17;1.50;;;;;;;21.98;38.62;97060.97;5078399;28;20229;-74
2021/04/27 10:07:07;;;;;;;2.42;1.88;;;;;;;19.62;37.94;97071.16;5082109;28;20286;-73
2021/04/27 10:09:34;;;;;;;4.97;2.15;;;;;;;20.90;37.19;97064.94;5080353;28;20697;-74
2021/04/27 10:12:01;;;;;;;3.08;1.83;;;;;;;20.38;37.45;97072.34;5068325;28;20196;-74
2021/04/27 10:14:28;;;;;;;3.13;1.60;;;;;;;21.30;37.73;97063.72;5083649;28;20199;-74
2021/04/27 10:16:55;;;;;;;2.17;1.67;;;;;;;20.11;40.06;97067.56;5082691;28;20252;-74
2021/04/27 10:19:22;;;;;;;2.90;2.00;;;;;;;18.58;40.83;97063.69;5080421;28;20225;-73
2021/04/27 10:21:49;;;;;;;2.58;1.58;;;;;;;19.52;39.48;97062.91;5067094;28;20725;-75
2021/04/27 10:24:18;;;;;;;1.67;1.50;;;;;;;19.57;38.59;97057.63;5081841;28;20303;-73
2021/04/27 10:26:46;;;;;;;3.72;2.22;;;;;;;20.91;38.97;97044.09;5080208;28;20263;-74
2021/04/27 10:29:19;;;;;;;2.97;2.13;;;;;;;18.90;39.67;97052.91;5080800;28;20239;-73
2021/04/27 10:31:48;;;;;;;2.80;1.63;;;;;;;19.37;41.10;97051.13;5083130;28;20261;-73
2021/04/27 10:34:17;;;;;;;3.10;2.20;;;;;;;19.53;41.10;97045.69;5087157;28;20205;-74
2021/04/27 10:36:50;;;;;;;4.30;2.15;;;;;;;20.71;41.72;97034.88;5081119;28;20270;-71
2021/04/27 10:39:41;;;;;;;2.92;1.88;;;;;;;19.88;41.83;97031.16;5072524;28;20223;-70
2021/04/27 10:42:31;;;;;;;2.50;1.60;;;;;;;19.74;43.74;97039.75;5068951;28;20207;-76
2021/04/27 10:45:04;;;;;;;3.03;1.73;;;;;;;18.67;42.36;97038.03;5088842;28;20232;-74
2021/04/27 10:47:39;;;;;;;2.92;1.55;;;;;;;18.74;42.37;97018.41;5074522;28;20225;-79
2021/04/27 10:50:07;;;;;;;3.13;2.00;;;;;;;18.72;44.04;97020.81;5095286;28;20438;-78
2021/04/27 10:52:39;;;;;;;2.33;1.60;;;;;;;18.53;41.09;97027.03;5102316;28;20258;-78
2021/04/27 10:55:25;;;;;;;3.10;1.50;;;;;;;18.55;43.12;97010.63;5101168;28;20330;-77
2021/04/27 10:57:53;;;;;;;1.77;1.50;;;;;;;18.94;45.52;97014.53;5096348;28;20291;-79
2021/04/27 11:00:40;;;;;;;2.05;1.67;;;;;;;19.59;42.02;97007.63;5093115;28;20281;-78
2021/04/27 11:03:15;;;;;;;3.15;2.00;;;;;;;17.75;44.06;97026.97;5093235;28;20235;-79
2021/04/27 11:06:12;;;;;;;1.90;1.58;;;;;;;18.05;45.66;97008.34;5091422;28;20239;-77
2021/04/27 11:08:57;;;;;;;3.85;2.47;;;;;;;19.46;47.05;97006.63;5093670;28;20200;-78
2021/04/27 11:11:29;;;;;;;2.47;1.73;;;;;;;17.34;44.88;97012.09;5093580;28;20238;-79
2021/04/27 11:14:22;;;;;;;4.53;2.03;;;;;;;17.84;45.38;97007.75;5075728;28;20261;-78
2021/04/27 11:16:54;;;;;;;5.07;2.30;;;;;;;17.71;45.86;97003.88;5092626;28;20216;-78
2021/04/27 11:19:21;;;;;;;7.67;1.80;;;;;;;17.51;46.60;97006.44;5092166;28;20204;-80
2021/04/27 11:21:50;;;;;;;2.90;1.80;;;;;;;17.67;45.34;96997.53;5091298;28;20205;-79
2021/04/27 11:24:38;;;;;;;3.67;2.07;;;;;;;18.01;48.56;96990.81;5092877;28;20798;-78
2021/04/27 11:27:21;;;;;;;2.73;1.83;;;;;;;18.65;44.78;96990.16;5095872;28;20211;-79
2021/04/27 11:29:55;;;;;;;3.57;2.07;;;;;;;18.92;43.79;96979.81;5100456;28;20234;-79
2021/04/27 11:32:22;;;;;;;1.83;1.40;;;;;;;19.22;49.31;96976.97;5118070;28;20224;-80
2021/04/27 11:35:17;;;;;;;2.23;1.60;;;;;;;18.80;45.77;96986.75;5100204;28;20723;-79
2021/04/27 11:37:46;;;;;;;2.88;2.03;;;;;;;18.96;47.21;96977.75;5117985;28;20200;-81
2021/04/27 11:40:36;;;;;;;1.92;1.48;;;;;;;19.17;46.55;96978.25;5116467;28;20253;-78
2021/04/27 11:43:08;;;;;;;15.00;1.85;;;;;;;19.76;47.36;96978.53;5114030;28;20267;-78
2021/04/27 11:45:55;;;;;;;1.67;1.48;;;;;;;19.72;49.70;96963.81;5096314;28;20227;-79
2021/04/27 11:48:23;;;;;;;4.32;1.90;;;;;;;19.08;46.86;96968.81;5097129;28;20231;-80
2021/04/27 11:50:50;;;;;;;2.20;1.70;;;;;;;19.46;45.69;96970.25;5115423;28;20269;-80
2021/04/27 11:53:21;;;;;;;1.98;1.77;;;;;;;19.69;47.40;96964.66;5114995;28;20207;-80
2021/04/27 11:55:47;;;;;;;2.53;1.65;;;;;;;19.88;50.79;96954.75;5097160;28;20306;-80
2021/04/27 11:58:38;;;;;;;5.72;2.45;;;;;;;19.18;48.89;96957.44;5115630;28;20291;-79
2021/04/27 12:01:07;;;;;;;2.25;1.67;;;;;;;18.96;49.42;96956.19;5110858;28;20304;-78
2021/04/27 12:03:38;;;;;;;3.25;2.47;;;;;;;19.44;48.74;96955.88;5111269;28;20263;-78
2021/04/27 12:06:13;;;;;;;3.88;2.45;;;;;;;19.74;48.66;96961.38;5094433;28;20605;-78